sensor_id;sensor_type;location;lat;lon;timestamp;pressure;altitude;pressure_sealevel;temperature;humidity
59073;BME280;44859;51.934;15.554;2023-03-21T00:01:30;99763.55;;;7.32;100.00
59073;BME280;44859;51.934;15.554;2023-03-21T00:04:02;99760.40;;;7.32;100.00
59073;BME280;44859;51.934;15.554;2023-03-21T00:06:30;99755.67;;;7.32;100.00
59073;BME280;44859;51.934;15.554;2023-03-21T00:08:59;99754.50;;;7.31;100.00
59073;BME280;44859;51.934;15.554;2023-03-21T00:11:31;99757.33;;;7.30;100.00
59073;BME280;44859;51.934;15.554;2023-03-21T00:13:59;99761.92;;;7.28;100.00
59073;BME280;44859;51.934;15.554;2023-03-21T00:16:30;99765.67;;;7.26;100.00
59073;BME280;44859;51.934;15.554;2023-03-21T00:19:06;99761.39;;;7.24;100.00
59073;BME280;44859;51.934;15.554;2023-03-21T00:21:47;99757.48;;;7.20;100.00
59073;BME280;44859;51.934;15.554;2023-03-21T00:24:41;99754.42;;;7.18;100.00
59073;BME280;44859;51.934;15.554;2023-03-21T00:27:09;99759.02;;;7.16;100.00
59073;BME280;44859;51.934;15.554;2023-03-21T00:29:59;99757.83;;;7.15;100.00
59073;BME280;44859;51.934;15.554;2023-03-21T00:32:28;99755.43;;;7.14;100.00
59073;BME280;44859;51.934;15.554;2023-03-21T00:35:20;99751.65;;;7.12;100.00
59073;BME280;44859;51.934;15.554;2023-03-21T00:38:14;99753.61;;;7.11;100.00
59073;BME280;44859;51.934;15.554;2023-03-21T00:40:46;99757.48;;;7.10;100.00
59073;BME280;44859;51.934;15.554;2023-03-21T00:43:37;99759.02;;;7.11;100.00
59073;BME280;44859;51.934;15.554;2023-03-21T00:46:05;99758.30;;;7.12;100.00
59073;BME280;44859;51.934;15.554;2023-03-21T00:48:34;99759.52;;;7.12;100.00
59073;BME280;44859;51.934;15.554;2023-03-21T00:51:12;99757.94;;;7.12;100.00
59073;BME280;44859;51.934;15.554;2023-03-21T00:53:44;99757.71;;;7.13;100.00
59073;BME280;44859;51.934;15.554;2023-03-21T00:56:12;99755.98;;;7.13;100.00
59073;BME280;44859;51.934;15.554;2023-03-21T00:58:50;99754.38;;;7.14;100.00
59073;BME280;44859;51.934;15.554;2023-03-21T01:01:20;99757.52;;;7.14;100.00
59073;BME280;44859;51.934;15.554;2023-03-21T01:03:49;99759.46;;;7.14;100.00
59073;BME280;44859;51.934;15.554;2023-03-21T01:06:36;99756.89;;;7.12;100.00
59073;BME280;44859;51.934;15.554;2023-03-21T01:09:19;99756.52;;;7.13;100.00
59073;BME280;44859;51.934;15.554;2023-03-21T01:11:49;99755.80;;;7.13;100.00
59073;BME280;44859;51.934;15.554;2023-03-21T01:14:20;99757.61;;;7.12;100.00
59073;BME280;44859;51.934;15.554;2023-03-21T01:16:51;99756.80;;;7.10;100.00
59073;BME280;44859;51.934;15.554;2023-03-21T01:19:24;99757.02;;;7.09;100.00
59073;BME280;44859;51.934;15.554;2023-03-21T01:22:11;99755.48;;;7.08;100.00
59073;BME280;44859;51.934;15.554;2023-03-21T01:24:39;99755.70;;;7.06;100.00
59073;BME280;44859;51.934;15.554;2023-03-21T01:27:20;99756.09;;;7.05;100.00
59073;BME280;44859;51.934;15.554;2023-03-21T01:29:49;99753.13;;;7.05;100.00
59073;BME280;44859;51.934;15.554;2023-03-21T01:32:18;99753.64;;;7.05;100.00
59073;BME280;44859;51.934;15.554;2023-03-21T01:34:58;99746.52;;;7.05;100.00
59073;BME280;44859;51.934;15.554;2023-03-21T01:37:29;99746.33;;;7.05;100.00
59073;BME280;44859;51.934;15.554;2023-03-21T01:39:59;99744.98;;;7.03;100.00
59073;BME280;44859;51.934;15.554;2023-03-21T01:42:28;99742.50;;;7.05;100.00
59073;BME280;44859;51.934;15.554;2023-03-21T01:45:00;99745.46;;;7.04;100.00
59073;BME280;44859;51.934;15.554;2023-03-21T01:47:30;99744.07;;;7.05;100.00
59073;BME280;44859;51.934;15.554;2023-03-21T01:50:02;99747.04;;;7.04;100.00
59073;BME280;44859;51.934;15.554;2023-03-21T01:52:35;99743.60;;;7.02;100.00
59073;BME280;44859;51.934;15.554;2023-03-21T01:55:09;99741.55;;;7.01;100.00
59073;BME280;44859;51.934;15.554;2023-03-21T01:57:53;99744.00;;;7.01;100.00
59073;BME280;44859;51.934;15.554;2023-03-21T02:00:33;99744.20;;;7.00;100.00
59073;BME280;44859;51.934;15.554;2023-03-21T02:03:06;99742.16;;;6.99;100.00
59073;BME280;44859;51.934;15.554;2023-03-21T02:05:53;99741.83;;;6.98;100.00
59073;BME280;44859;51.934;15.554;2023-03-21T02:08:24;99742.60;;;6.96;100.00
59073;BME280;44859;51.934;15.554;2023-03-21T02:11:08;99738.42;;;6.96;100.00
59073;BME280;44859;51.934;15.554;2023-03-21T02:13:47;99742.11;;;6.95;100.00
59073;BME280;44859;51.934;15.554;2023-03-21T02:16:33;99734.64;;;6.94;100.00
59073;BME280;44859;51.934;15.554;2023-03-21T02:33:45;99733.84;;;6.92;100.00
59073;BME280;44859;51.934;15.554;2023-03-21T02:39:40;99731.66;;;6.90;100.00
59073;BME280;44859;51.934;15.554;2023-03-21T02:42:29;99731.67;;;6.89;100.00
59073;BME280;44859;51.934;15.554;2023-03-21T02:45:09;99734.98;;;6.89;100.00
59073;BME280;44859;51.934;15.554;2023-03-21T02:47:48;99730.38;;;6.86;100.00
59073;BME280;44859;51.934;15.554;2023-03-21T02:50:59;99733.02;;;6.85;100.00
59073;BME280;44859;51.934;15.554;2023-03-21T02:53:23;99727.82;;;6.84;100.00
59073;BME280;44859;51.934;15.554;2023-03-21T02:55:52;99724.85;;;6.85;100.00
59073;BME280;44859;51.934;15.554;2023-03-21T02:58:23;99729.05;;;6.84;100.00
59073;BME280;44859;51.934;15.554;2023-03-21T03:00:57;99735.20;;;6.83;100.00
59073;BME280;44859;51.934;15.554;2023-03-21T03:03:25;99737.34;;;6.82;100.00
59073;BME280;44859;51.934;15.554;2023-03-21T03:06:08;99740.48;;;6.82;100.00
59073;BME280;44859;51.934;15.554;2023-03-21T03:11:38;99739.58;;;6.83;100.00
59073;BME280;44859;51.934;15.554;2023-03-21T03:14:26;99741.85;;;6.82;100.00
59073;BME280;44859;51.934;15.554;2023-03-21T03:25:38;99738.59;;;6.81;100.00
59073;BME280;44859;51.934;15.554;2023-03-21T03:28:11;99733.55;;;6.80;100.00
59073;BME280;44859;51.934;15.554;2023-03-21T03:30:42;99736.55;;;6.79;100.00
59073;BME280;44859;51.934;15.554;2023-03-21T03:33:33;99735.71;;;6.78;100.00
59073;BME280;44859;51.934;15.554;2023-03-21T03:36:08;99735.75;;;6.77;100.00
59073;BME280;44859;51.934;15.554;2023-03-21T03:39:01;99735.99;;;6.75;100.00
59073;BME280;44859;51.934;15.554;2023-03-21T03:41:53;99734.63;;;6.74;100.00
59073;BME280;44859;51.934;15.554;2023-03-21T03:44:53;99736.73;;;6.74;100.00
59073;BME280;44859;51.934;15.554;2023-03-21T03:50:28;99743.19;;;6.74;100.00
59073;BME280;44859;51.934;15.554;2023-03-21T03:53:06;99741.83;;;6.73;99.97
59073;BME280;44859;51.934;15.554;2023-03-21T03:55:46;99740.46;;;6.72;100.00
59073;BME280;44859;51.934;15.554;2023-03-21T03:58:23;99739.94;;;6.72;100.00
59073;BME280;44859;51.934;15.554;2023-03-21T04:01:07;99741.92;;;6.70;99.97
59073;BME280;44859;51.934;15.554;2023-03-21T04:03:40;99743.89;;;6.69;99.99
59073;BME280;44859;51.934;15.554;2023-03-21T04:06:18;99744.42;;;6.68;99.94
59073;BME280;44859;51.934;15.554;2023-03-21T04:08:47;99744.95;;;6.68;99.82
59073;BME280;44859;51.934;15.554;2023-03-21T04:11:21;99740.95;;;6.68;99.87
59073;BME280;44859;51.934;15.554;2023-03-21T04:14:02;99742.34;;;6.68;99.83
59073;BME280;44859;51.934;15.554;2023-03-21T04:16:30;99741.86;;;6.67;99.89
59073;BME280;44859;51.934;15.554;2023-03-21T04:19:02;99743.81;;;6.65;99.87
59073;BME280;44859;51.934;15.554;2023-03-21T04:21:34;99740.52;;;6.65;99.89
59073;BME280;44859;51.934;15.554;2023-03-21T04:24:03;99739.39;;;6.62;99.86
59073;BME280;44859;51.934;15.554;2023-03-21T04:26:33;99741.71;;;6.61;99.59
59073;BME280;44859;51.934;15.554;2023-03-21T04:29:03;99741.73;;;6.60;99.67
59073;BME280;44859;51.934;15.554;2023-03-21T04:31:33;99742.41;;;6.61;99.50
59073;BME280;44859;51.934;15.554;2023-03-21T04:34:06;99743.40;;;6.62;99.37
59073;BME280;44859;51.934;15.554;2023-03-21T04:36:40;99744.27;;;6.62;99.27
59073;BME280;44859;51.934;15.554;2023-03-21T04:39:18;99746.45;;;6.60;99.32
59073;BME280;44859;51.934;15.554;2023-03-21T04:41:49;99743.92;;;6.57;99.09
59073;BME280;44859;51.934;15.554;2023-03-21T04:44:18;99743.77;;;6.57;98.72
59073;BME280;44859;51.934;15.554;2023-03-21T04:46:50;99746.90;;;6.57;98.84
59073;BME280;44859;51.934;15.554;2023-03-21T04:49:21;99751.10;;;6.56;98.41
59073;BME280;44859;51.934;15.554;2023-03-21T04:51:50;99747.48;;;6.55;98.24
59073;BME280;44859;51.934;15.554;2023-03-21T04:54:18;99748.57;;;6.54;98.18
59073;BME280;44859;51.934;15.554;2023-03-21T04:56:48;99747.10;;;6.51;98.37
59073;BME280;44859;51.934;15.554;2023-03-21T04:59:19;99745.41;;;6.49;98.01
59073;BME280;44859;51.934;15.554;2023-03-21T05:01:48;99749.96;;;6.48;98.47
59073;BME280;44859;51.934;15.554;2023-03-21T05:04:18;99748.42;;;6.47;98.51
59073;BME280;44859;51.934;15.554;2023-03-21T05:06:47;99754.08;;;6.45;98.31
59073;BME280;44859;51.934;15.554;2023-03-21T05:09:15;99755.35;;;6.43;98.26
59073;BME280;44859;51.934;15.554;2023-03-21T05:11:52;99755.23;;;6.42;98.36
59073;BME280;44859;51.934;15.554;2023-03-21T05:14:23;99759.83;;;6.40;98.21
59073;BME280;44859;51.934;15.554;2023-03-21T05:16:53;99762.83;;;6.39;98.03
59073;BME280;44859;51.934;15.554;2023-03-21T05:19:26;99760.96;;;6.37;98.26
59073;BME280;44859;51.934;15.554;2023-03-21T05:22:10;99768.48;;;6.37;98.04
59073;BME280;44859;51.934;15.554;2023-03-21T05:24:39;99765.69;;;6.37;97.99
59073;BME280;44859;51.934;15.554;2023-03-21T05:27:09;99767.83;;;6.35;97.77
59073;BME280;44859;51.934;15.554;2023-03-21T05:29:41;99771.84;;;6.36;97.79
59073;BME280;44859;51.934;15.554;2023-03-21T05:32:09;99773.91;;;6.36;97.90
59073;BME280;44859;51.934;15.554;2023-03-21T05:34:38;99770.46;;;6.34;97.79
59073;BME280;44859;51.934;15.554;2023-03-21T05:37:12;99771.18;;;6.34;97.75
59073;BME280;44859;51.934;15.554;2023-03-21T05:39:41;99773.11;;;6.33;97.55
59073;BME280;44859;51.934;15.554;2023-03-21T05:42:09;99777.63;;;6.34;97.42
59073;BME280;44859;51.934;15.554;2023-03-21T05:44:38;99779.92;;;6.34;97.00
59073;BME280;44859;51.934;15.554;2023-03-21T05:47:08;99783.77;;;6.33;97.33
59073;BME280;44859;51.934;15.554;2023-03-21T05:49:44;99781.44;;;6.35;97.41
59073;BME280;44859;51.934;15.554;2023-03-21T05:52:25;99781.28;;;6.35;97.12
59073;BME280;44859;51.934;15.554;2023-03-21T05:54:54;99783.54;;;6.35;96.65
59073;BME280;44859;51.934;15.554;2023-03-21T05:57:23;99786.84;;;6.35;96.72
59073;BME280;44859;51.934;15.554;2023-03-21T05:59:53;99786.81;;;6.36;96.65
59073;BME280;44859;51.934;15.554;2023-03-21T06:02:25;99792.23;;;6.36;96.54
59073;BME280;44859;51.934;15.554;2023-03-21T06:04:54;99793.95;;;6.36;96.64
59073;BME280;44859;51.934;15.554;2023-03-21T06:07:23;99795.17;;;6.37;96.41
59073;BME280;44859;51.934;15.554;2023-03-21T06:09:52;99797.14;;;6.35;96.59
59073;BME280;44859;51.934;15.554;2023-03-21T06:12:29;99799.81;;;6.33;96.36
59073;BME280;44859;51.934;15.554;2023-03-21T06:15:04;99797.55;;;6.33;96.31
59073;BME280;44859;51.934;15.554;2023-03-21T06:17:33;99794.95;;;6.32;96.16
59073;BME280;44859;51.934;15.554;2023-03-21T06:20:02;99798.82;;;6.31;96.19
59073;BME280;44859;51.934;15.554;2023-03-21T06:22:34;99797.80;;;6.31;95.88
59073;BME280;44859;51.934;15.554;2023-03-21T06:25:04;99802.27;;;6.33;96.16
59073;BME280;44859;51.934;15.554;2023-03-21T06:27:34;99803.66;;;6.32;96.00
59073;BME280;44859;51.934;15.554;2023-03-21T06:30:03;99804.34;;;6.33;96.15
59073;BME280;44859;51.934;15.554;2023-03-21T06:32:42;99803.84;;;6.33;95.95
59073;BME280;44859;51.934;15.554;2023-03-21T06:35:11;99806.66;;;6.32;95.70
59073;BME280;44859;51.934;15.554;2023-03-21T06:37:42;99802.96;;;6.33;95.48
59073;BME280;44859;51.934;15.554;2023-03-21T06:40:13;99803.05;;;6.35;95.87
59073;BME280;44859;51.934;15.554;2023-03-21T06:42:50;99803.59;;;6.35;95.22
59073;BME280;44859;51.934;15.554;2023-03-21T06:45:19;99805.55;;;6.39;95.58
59073;BME280;44859;51.934;15.554;2023-03-21T06:47:47;99805.17;;;6.45;95.19
59073;BME280;44859;51.934;15.554;2023-03-21T06:50:15;99808.34;;;6.50;95.39
59073;BME280;44859;51.934;15.554;2023-03-21T06:52:44;99808.34;;;6.51;95.14
59073;BME280;44859;51.934;15.554;2023-03-21T06:55:13;99813.17;;;6.52;95.04
59073;BME280;44859;51.934;15.554;2023-03-21T06:57:41;99810.64;;;6.50;94.73
59073;BME280;44859;51.934;15.554;2023-03-21T07:00:10;99813.09;;;6.49;94.67
59073;BME280;44859;51.934;15.554;2023-03-21T07:02:53;99816.77;;;6.49;94.53
59073;BME280;44859;51.934;15.554;2023-03-21T07:05:24;99819.93;;;6.54;94.54
59073;BME280;44859;51.934;15.554;2023-03-21T07:07:52;99819.91;;;6.60;94.63
59073;BME280;44859;51.934;15.554;2023-03-21T07:10:28;99818.27;;;6.67;94.25
59073;BME280;44859;51.934;15.554;2023-03-21T07:13:00;99818.89;;;6.75;94.00
59073;BME280;44859;51.934;15.554;2023-03-21T07:15:28;99819.69;;;6.83;93.86
59073;BME280;44859;51.934;15.554;2023-03-21T07:17:56;99822.05;;;6.91;94.12
59073;BME280;44859;51.934;15.554;2023-03-21T07:20:27;99816.20;;;6.93;93.61
59073;BME280;44859;51.934;15.554;2023-03-21T07:22:57;99814.69;;;6.92;93.34
59073;BME280;44859;51.934;15.554;2023-03-21T07:25:26;99817.94;;;6.89;93.35
59073;BME280;44859;51.934;15.554;2023-03-21T07:27:54;99824.96;;;6.87;92.79
59073;BME280;44859;51.934;15.554;2023-03-21T07:30:26;99824.19;;;6.95;92.82
59073;BME280;44859;51.934;15.554;2023-03-21T07:32:55;99823.04;;;7.03;92.65
59073;BME280;44859;51.934;15.554;2023-03-21T07:35:24;99825.86;;;7.07;92.26
59073;BME280;44859;51.934;15.554;2023-03-21T07:37:55;99827.95;;;7.07;92.06
59073;BME280;44859;51.934;15.554;2023-03-21T07:40:23;99833.60;;;7.06;92.27
59073;BME280;44859;51.934;15.554;2023-03-21T07:42:55;99833.73;;;7.07;91.29
59073;BME280;44859;51.934;15.554;2023-03-21T07:45:24;99832.98;;;7.09;91.50
59073;BME280;44859;51.934;15.554;2023-03-21T07:47:54;99834.45;;;7.12;91.44
59073;BME280;44859;51.934;15.554;2023-03-21T07:50:23;99835.88;;;7.11;91.20
59073;BME280;44859;51.934;15.554;2023-03-21T07:52:51;99832.03;;;7.06;91.06
59073;BME280;44859;51.934;15.554;2023-03-21T07:55:21;99830.00;;;7.09;90.78
59073;BME280;44859;51.934;15.554;2023-03-21T07:57:49;99831.75;;;7.14;90.59
59073;BME280;44859;51.934;15.554;2023-03-21T08:00:19;99830.59;;;7.17;90.41
59073;BME280;44859;51.934;15.554;2023-03-21T08:02:53;99830.27;;;7.21;90.35
59073;BME280;44859;51.934;15.554;2023-03-21T08:05:29;99826.48;;;7.30;89.68
59073;BME280;44859;51.934;15.554;2023-03-21T08:07:58;99829.63;;;7.40;89.48
59073;BME280;44859;51.934;15.554;2023-03-21T08:10:27;99824.23;;;7.45;89.13
59073;BME280;44859;51.934;15.554;2023-03-21T08:12:55;99832.63;;;7.44;88.89
59073;BME280;44859;51.934;15.554;2023-03-21T08:15:24;99833.29;;;7.40;88.36
59073;BME280;44859;51.934;15.554;2023-03-21T08:17:52;99837.41;;;7.33;87.94
59073;BME280;44859;51.934;15.554;2023-03-21T08:20:21;99834.77;;;7.33;88.37
59073;BME280;44859;51.934;15.554;2023-03-21T08:22:50;99840.34;;;7.39;87.89
59073;BME280;44859;51.934;15.554;2023-03-21T08:25:21;99835.72;;;7.46;87.76
59073;BME280;44859;51.934;15.554;2023-03-21T08:27:50;99837.27;;;7.62;87.85
59073;BME280;44859;51.934;15.554;2023-03-21T08:30:21;99834.70;;;7.94;87.84
59073;BME280;44859;51.934;15.554;2023-03-21T08:32:49;99835.49;;;8.01;86.97
59073;BME280;44859;51.934;15.554;2023-03-21T08:35:18;99838.29;;;8.05;86.34
59073;BME280;44859;51.934;15.554;2023-03-21T08:37:47;99836.73;;;8.09;85.75
59073;BME280;44859;51.934;15.554;2023-03-21T08:40:17;99838.12;;;8.24;85.47
59073;BME280;44859;51.934;15.554;2023-03-21T08:42:45;99837.48;;;8.40;85.05
59073;BME280;44859;51.934;15.554;2023-03-21T08:45:16;99840.01;;;8.39;84.15
59073;BME280;44859;51.934;15.554;2023-03-21T08:47:45;99842.02;;;8.40;84.28
59073;BME280;44859;51.934;15.554;2023-03-21T08:50:17;99838.82;;;8.47;84.34
59073;BME280;44859;51.934;15.554;2023-03-21T08:52:49;99837.57;;;8.52;83.13
59073;BME280;44859;51.934;15.554;2023-03-21T08:55:18;99837.10;;;8.55;83.25
59073;BME280;44859;51.934;15.554;2023-03-21T08:57:46;99834.30;;;8.82;83.17
59073;BME280;44859;51.934;15.554;2023-03-21T09:00:16;99836.88;;;9.08;82.87
59073;BME280;44859;51.934;15.554;2023-03-21T09:02:47;99839.20;;;9.28;82.08
59073;BME280;44859;51.934;15.554;2023-03-21T09:05:17;99836.67;;;9.30;81.37
59073;BME280;44859;51.934;15.554;2023-03-21T09:07:56;99838.06;;;9.22;81.12
59073;BME280;44859;51.934;15.554;2023-03-21T09:10:24;99836.52;;;9.05;80.80
59073;BME280;44859;51.934;15.554;2023-03-21T09:12:54;99838.60;;;8.96;80.72
59073;BME280;44859;51.934;15.554;2023-03-21T09:15:25;99839.48;;;9.05;80.43
59073;BME280;44859;51.934;15.554;2023-03-21T09:17:57;99840.46;;;9.11;80.76
59073;BME280;44859;51.934;15.554;2023-03-21T09:20:44;99838.36;;;9.23;80.31
59073;BME280;44859;51.934;15.554;2023-03-21T09:23:13;99837.23;;;9.29;80.01
59073;BME280;44859;51.934;15.554;2023-03-21T09:25:45;99833.77;;;9.24;79.40
59073;BME280;44859;51.934;15.554;2023-03-21T09:28:13;99836.35;;;9.21;79.34
59073;BME280;44859;51.934;15.554;2023-03-21T09:30:44;99837.69;;;9.14;79.12
59073;BME280;44859;51.934;15.554;2023-03-21T09:33:13;99836.52;;;9.05;78.92
59073;BME280;44859;51.934;15.554;2023-03-21T09:35:46;99842.07;;;8.93;79.11
59073;BME280;44859;51.934;15.554;2023-03-21T09:38:19;99844.13;;;8.77;78.58
59073;BME280;44859;51.934;15.554;2023-03-21T09:46:35;99848.61;;;8.52;79.44
59073;BME280;44859;51.934;15.554;2023-03-21T09:52:18;99847.33;;;8.53;79.30
59073;BME280;44859;51.934;15.554;2023-03-21T09:54:49;99846.60;;;8.45;79.38
59073;BME280;44859;51.934;15.554;2023-03-21T10:00:03;99848.14;;;8.41;80.13
59073;BME280;44859;51.934;15.554;2023-03-21T10:02:47;99846.84;;;8.43;79.73
59073;BME280;44859;51.934;15.554;2023-03-21T10:05:23;99847.58;;;8.42;80.07
59073;BME280;44859;51.934;15.554;2023-03-21T10:08:00;99847.05;;;8.37;80.22
59073;BME280;44859;51.934;15.554;2023-03-21T10:10:35;99846.89;;;8.37;80.15
59073;BME280;44859;51.934;15.554;2023-03-21T10:13:12;99843.27;;;8.40;80.29
59073;BME280;44859;51.934;15.554;2023-03-21T10:15:41;99844.73;;;8.38;80.37
59073;BME280;44859;51.934;15.554;2023-03-21T10:18:16;99850.85;;;8.44;80.60
59073;BME280;44859;51.934;15.554;2023-03-21T10:20:48;99846.18;;;8.47;80.19
59073;BME280;44859;51.934;15.554;2023-03-21T10:23:20;99840.23;;;8.47;80.74
59073;BME280;44859;51.934;15.554;2023-03-21T10:25:57;99841.93;;;8.53;80.63
59073;BME280;44859;51.934;15.554;2023-03-21T10:28:30;99840.48;;;8.58;80.52
59073;BME280;44859;51.934;15.554;2023-03-21T10:31:20;99842.05;;;8.59;80.52
59073;BME280;44859;51.934;15.554;2023-03-21T10:33:55;99838.49;;;8.51;80.40
59073;BME280;44859;51.934;15.554;2023-03-21T10:36:28;99845.64;;;8.56;81.23
59073;BME280;44859;51.934;15.554;2023-03-21T10:39:02;99845.58;;;8.66;80.86
59073;BME280;44859;51.934;15.554;2023-03-21T10:41:32;99846.67;;;8.70;80.35
59073;BME280;44859;51.934;15.554;2023-03-21T10:44:13;99845.84;;;8.60;80.19
59073;BME280;44859;51.934;15.554;2023-03-21T10:46:53;99843.11;;;8.58;80.09
59073;BME280;44859;51.934;15.554;2023-03-21T10:49:23;99840.19;;;8.61;80.47
59073;BME280;44859;51.934;15.554;2023-03-21T10:51:56;99839.86;;;8.66;80.64
59073;BME280;44859;51.934;15.554;2023-03-21T10:54:32;99839.36;;;8.73;80.57
59073;BME280;44859;51.934;15.554;2023-03-21T10:57:07;99839.77;;;8.85;80.57
59073;BME280;44859;51.934;15.554;2023-03-21T11:02:22;99839.08;;;8.89;79.66
59073;BME280;44859;51.934;15.554;2023-03-21T11:04:53;99838.16;;;8.82;80.22
59073;BME280;44859;51.934;15.554;2023-03-21T11:07:27;99833.85;;;8.75;80.45
59073;BME280;44859;51.934;15.554;2023-03-21T11:10:00;99834.89;;;8.67;80.30
59073;BME280;44859;51.934;15.554;2023-03-21T11:12:47;99837.11;;;8.64;79.76
59073;BME280;44859;51.934;15.554;2023-03-21T11:15:48;99834.15;;;8.63;80.19
59073;BME280;44859;51.934;15.554;2023-03-21T11:18:25;99829.17;;;8.65;80.59
59073;BME280;44859;51.934;15.554;2023-03-21T11:21:05;99826.15;;;8.67;80.44
59073;BME280;44859;51.934;15.554;2023-03-21T11:23:41;99831.04;;;8.71;80.33
59073;BME280;44859;51.934;15.554;2023-03-21T11:26:20;99828.35;;;8.69;80.71
59073;BME280;44859;51.934;15.554;2023-03-21T11:28:51;99824.98;;;8.65;80.38
59073;BME280;44859;51.934;15.554;2023-03-21T11:31:21;99822.34;;;8.66;80.40
59073;BME280;44859;51.934;15.554;2023-03-21T11:33:55;99823.27;;;8.69;80.29
59073;BME280;44859;51.934;15.554;2023-03-21T11:36:30;99822.65;;;8.67;80.60
59073;BME280;44859;51.934;15.554;2023-03-21T11:39:13;99818.49;;;8.65;80.87
59073;BME280;44859;51.934;15.554;2023-03-21T11:41:42;99817.13;;;8.69;80.72
59073;BME280;44859;51.934;15.554;2023-03-21T11:44:33;99815.17;;;8.74;80.44
59073;BME280;44859;51.934;15.554;2023-03-21T11:47:02;99806.33;;;8.76;80.78
59073;BME280;44859;51.934;15.554;2023-03-21T11:49:30;99805.05;;;8.81;80.04
59073;BME280;44859;51.934;15.554;2023-03-21T11:52:28;99807.05;;;8.93;80.05
59073;BME280;44859;51.934;15.554;2023-03-21T11:55:12;99806.48;;;9.06;80.54
59073;BME280;44859;51.934;15.554;2023-03-21T12:00:29;99804.10;;;9.21;79.25
59073;BME280;44859;51.934;15.554;2023-03-21T12:05:55;99790.27;;;9.37;79.25
59073;BME280;44859;51.934;15.554;2023-03-21T12:11:44;99786.65;;;9.44;78.51
59073;BME280;44859;51.934;15.554;2023-03-21T12:22:37;99776.84;;;9.15;78.65
59073;BME280;44859;51.934;15.554;2023-03-21T12:25:20;99780.50;;;9.08;78.36
59073;BME280;44859;51.934;15.554;2023-03-21T12:31:13;99767.21;;;9.07;78.66
59073;BME280;44859;51.934;15.554;2023-03-21T12:39:34;99753.67;;;9.08;78.95
59073;BME280;44859;51.934;15.554;2023-03-21T12:45:00;99745.23;;;9.41;79.47
59073;BME280;44859;51.934;15.554;2023-03-21T12:47:46;99738.82;;;9.55;78.90
59073;BME280;44859;51.934;15.554;2023-03-21T12:50:29;99737.35;;;9.60;78.55
59073;BME280;44859;51.934;15.554;2023-03-21T12:53:24;99731.75;;;9.52;78.27
59073;BME280;44859;51.934;15.554;2023-03-21T12:55:56;99729.34;;;9.48;78.01
59073;BME280;44859;51.934;15.554;2023-03-21T12:58:28;99730.77;;;9.47;77.93
59073;BME280;44859;51.934;15.554;2023-03-21T13:01:02;99730.27;;;9.43;78.36
59073;BME280;44859;51.934;15.554;2023-03-21T13:03:38;99732.60;;;9.42;78.24
59073;BME280;44859;51.934;15.554;2023-03-21T13:06:15;99726.65;;;9.41;78.63
59073;BME280;44859;51.934;15.554;2023-03-21T13:08:51;99732.11;;;9.41;78.32
59073;BME280;44859;51.934;15.554;2023-03-21T13:11:26;99730.98;;;9.38;78.32
59073;BME280;44859;51.934;15.554;2023-03-21T13:14:11;99727.98;;;9.30;78.09
59073;BME280;44859;51.934;15.554;2023-03-21T13:16:56;99727.40;;;9.28;78.57
59073;BME280;44859;51.934;15.554;2023-03-21T13:19:45;99726.55;;;9.31;79.01
59073;BME280;44859;51.934;15.554;2023-03-21T13:22:23;99723.36;;;9.36;78.87
59073;BME280;44859;51.934;15.554;2023-03-21T13:24:59;99722.07;;;9.42;78.67
59073;BME280;44859;51.934;15.554;2023-03-21T13:27:34;99714.95;;;9.44;78.91
59073;BME280;44859;51.934;15.554;2023-03-21T13:30:16;99717.59;;;9.44;78.90
59073;BME280;44859;51.934;15.554;2023-03-21T13:32:48;99715.63;;;9.41;79.09
59073;BME280;44859;51.934;15.554;2023-03-21T13:35:20;99716.27;;;9.39;79.39
59073;BME280;44859;51.934;15.554;2023-03-21T13:38:02;99715.56;;;9.26;78.65
59073;BME280;44859;51.934;15.554;2023-03-21T13:41:05;99709.05;;;9.19;79.10
59073;BME280;44859;51.934;15.554;2023-03-21T13:43:51;99704.14;;;9.19;79.02
59073;BME280;44859;51.934;15.554;2023-03-21T13:51:51;99696.92;;;9.20;79.67
59073;BME280;44859;51.934;15.554;2023-03-21T13:57:06;99695.98;;;9.10;79.60
59073;BME280;44859;51.934;15.554;2023-03-21T13:59:43;99692.31;;;9.09;79.81
59073;BME280;44859;51.934;15.554;2023-03-21T14:04:41;99686.88;;;9.09;79.85
59073;BME280;44859;51.934;15.554;2023-03-21T14:07:33;99684.98;;;9.13;80.05
59073;BME280;44859;51.934;15.554;2023-03-21T14:10:19;99681.77;;;9.18;79.83
59073;BME280;44859;51.934;15.554;2023-03-21T14:12:58;99679.63;;;9.27;80.01
59073;BME280;44859;51.934;15.554;2023-03-21T14:18:25;99671.51;;;9.36;79.46
59073;BME280;44859;51.934;15.554;2023-03-21T14:21:29;99675.05;;;9.35;79.12
59073;BME280;44859;51.934;15.554;2023-03-21T14:24:10;99675.54;;;9.31;79.50
59073;BME280;44859;51.934;15.554;2023-03-21T14:26:45;99674.18;;;9.31;79.03
59073;BME280;44859;51.934;15.554;2023-03-21T14:29:34;99672.38;;;9.32;79.13
59073;BME280;44859;51.934;15.554;2023-03-21T14:32:13;99671.59;;;9.33;79.52
59073;BME280;44859;51.934;15.554;2023-03-21T14:34:46;99667.69;;;9.35;79.13
59073;BME280;44859;51.934;15.554;2023-03-21T14:37:46;99669.33;;;9.33;79.49
59073;BME280;44859;51.934;15.554;2023-03-21T14:40:21;99669.50;;;9.33;78.98
59073;BME280;44859;51.934;15.554;2023-03-21T14:42:53;99667.08;;;9.32;79.19
59073;BME280;44859;51.934;15.554;2023-03-21T14:45:27;99667.02;;;9.34;79.29
59073;BME280;44859;51.934;15.554;2023-03-21T14:48:04;99664.92;;;9.34;78.91
59073;BME280;44859;51.934;15.554;2023-03-21T14:50:40;99659.71;;;9.33;78.96
59073;BME280;44859;51.934;15.554;2023-03-21T14:53:17;99657.71;;;9.34;79.07
59073;BME280;44859;51.934;15.554;2023-03-21T14:55:57;99656.65;;;9.35;78.85
59073;BME280;44859;51.934;15.554;2023-03-21T14:58:27;99655.01;;;9.36;78.78
59073;BME280;44859;51.934;15.554;2023-03-21T15:01:01;99651.33;;;9.41;79.28
59073;BME280;44859;51.934;15.554;2023-03-21T15:03:31;99653.10;;;9.44;79.27
59073;BME280;44859;51.934;15.554;2023-03-21T15:06:01;99650.66;;;9.47;79.29